createdAt,value
2022-10-14T00:00:06.214Z,13.15
2022-10-14T00:02:39.058Z,13.49
2022-10-14T00:05:07.829Z,13.49
2022-10-14T00:07:36.637Z,13.34
2022-10-14T00:10:05.133Z,13.43
2022-10-14T00:12:33.078Z,13.45
2022-10-14T00:15:00.647Z,13.42
2022-10-14T00:17:28.077Z,13.52
2022-10-14T00:19:55.468Z,13.49
2022-10-14T00:22:22.879Z,13.53
2022-10-14T00:24:51.611Z,13.51
2022-10-14T00:27:19.315Z,13.47
2022-10-14T00:29:47.199Z,13.34
2022-10-14T00:32:14.672Z,13.24
2022-10-14T00:34:42.255Z,13.48
2022-10-14T00:37:09.817Z,13.50
2022-10-14T00:39:37.221Z,13.39
2022-10-14T00:42:06.118Z,13.47
2022-10-14T00:45:01.691Z,13.61
2022-10-14T00:47:29.555Z,13.87
2022-10-14T00:49:57.929Z,13.98
2022-10-14T00:52:25.410Z,13.78
2022-10-14T00:54:56.117Z,13.84
2022-10-14T00:57:26.131Z,13.79
2022-10-14T00:59:55.776Z,13.78
2022-10-14T01:02:23.323Z,13.91
2022-10-14T01:04:51.037Z,13.85
2022-10-14T01:07:24.461Z,13.79
2022-10-14T01:09:58.166Z,13.68
2022-10-14T01:12:34.307Z,13.83
2022-10-14T01:15:08.000Z,13.81
2022-10-14T01:17:42.007Z,13.53
2022-10-14T01:20:32.010Z,13.59
2022-10-14T01:23:09.057Z,13.43
2022-10-14T01:25:45.994Z,13.44
2022-10-14T01:28:24.428Z,13.38
2022-10-14T01:30:56.471Z,13.27
2022-10-14T01:33:26.377Z,13.25
2022-10-14T01:36:02.319Z,13.28
2022-10-14T01:38:32.752Z,13.12
2022-10-14T01:41:06.941Z,13.09
2022-10-14T01:43:36.019Z,13.40
2022-10-14T01:46:07.306Z,13.39
2022-10-14T01:48:37.189Z,13.29
2022-10-14T01:51:07.192Z,13.15
2022-10-14T01:53:38.038Z,12.99
2022-10-14T01:56:07.196Z,13.12
2022-10-14T01:58:35.389Z,13.10
2022-10-14T02:01:05.071Z,13.11
2022-10-14T02:03:40.446Z,13.15
2022-10-14T02:06:10.596Z,13.23
2022-10-14T02:08:49.326Z,13.34
2022-10-14T02:11:18.910Z,13.36
2022-10-14T02:14:05.001Z,13.18
2022-10-14T02:16:38.993Z,13.25
2022-10-14T02:19:14.340Z,13.17
2022-10-14T02:21:45.003Z,13.28
2022-10-14T02:24:15.865Z,13.35
2022-10-14T02:26:43.941Z,13.39
2022-10-14T02:29:12.381Z,13.18
2022-10-14T02:31:42.843Z,13.24
2022-10-14T02:34:13.922Z,13.12
2022-10-14T02:36:42.632Z,13.06
2022-10-14T02:39:13.073Z,13.10
2022-10-14T02:41:40.613Z,13.07
2022-10-14T02:44:08.866Z,13.13
2022-10-14T02:46:36.369Z,12.92
2022-10-14T02:49:05.117Z,12.90
2022-10-14T02:51:32.545Z,13.22
2022-10-14T02:54:01.718Z,13.04
2022-10-14T02:56:29.634Z,13.07
2022-10-14T02:59:00.612Z,12.91
2022-10-14T03:01:28.344Z,13.06
2022-10-14T03:03:55.916Z,13.01
2022-10-14T03:06:26.272Z,13.02
2022-10-14T03:08:53.693Z,13.06
2022-10-14T03:11:22.541Z,13.24
2022-10-14T03:13:51.739Z,13.18
2022-10-14T03:16:21.123Z,13.00
2022-10-14T03:18:49.089Z,13.05
2022-10-14T03:21:29.771Z,13.14
2022-10-14T03:23:57.137Z,13.21
2022-10-14T03:26:32.473Z,13.23
2022-10-14T03:28:59.895Z,13.35
2022-10-14T03:31:40.407Z,13.33
2022-10-14T03:34:26.405Z,13.18
2022-10-14T03:37:05.365Z,13.37
2022-10-14T03:39:36.276Z,13.34
2022-10-14T03:42:05.982Z,13.36
2022-10-14T03:44:41.299Z,13.19
2022-10-14T03:47:16.417Z,13.23
2022-10-14T03:49:45.271Z,13.11
2022-10-14T03:52:21.719Z,13.09
2022-10-14T03:55:00.158Z,13.14
2022-10-14T03:57:28.334Z,13.14
2022-10-14T03:59:57.934Z,13.17
2022-10-14T04:02:41.828Z,13.23
2022-10-14T04:05:33.971Z,13.46
2022-10-14T04:08:07.618Z,13.49
2022-10-14T04:10:36.037Z,13.20
2022-10-14T04:13:03.754Z,13.29
2022-10-14T04:15:36.421Z,13.34
2022-10-14T04:18:15.521Z,13.02
2022-10-14T04:20:44.335Z,13.30
2022-10-14T04:23:13.677Z,13.15
2022-10-14T04:25:42.849Z,13.17
2022-10-14T04:28:12.717Z,13.20
2022-10-14T04:30:47.309Z,13.40
2022-10-14T04:33:20.917Z,13.38
2022-10-14T04:35:49.841Z,13.21
2022-10-14T04:38:26.089Z,13.44
2022-10-14T04:40:58.893Z,13.43
2022-10-14T04:43:27.777Z,13.42
2022-10-14T04:45:58.306Z,13.35
2022-10-14T04:48:27.451Z,13.43
2022-10-14T04:50:55.992Z,13.45
2022-10-14T04:53:35.142Z,13.41
2022-10-14T04:56:20.424Z,13.55
2022-10-14T04:58:58.810Z,13.32
2022-10-14T05:01:41.840Z,13.20
2022-10-14T05:04:09.249Z,13.07
2022-10-14T05:06:40.544Z,13.09
2022-10-14T05:09:11.681Z,13.20
2022-10-14T05:11:39.429Z,13.43
2022-10-14T05:14:06.850Z,13.49
2022-10-14T05:16:36.445Z,13.34
2022-10-14T05:19:04.339Z,13.35
2022-10-14T05:21:33.715Z,13.35
2022-10-14T05:24:07.678Z,13.56
2022-10-14T05:26:39.022Z,13.51
2022-10-14T05:29:11.348Z,13.30
2022-10-14T05:31:39.988Z,13.54
2022-10-14T05:34:20.719Z,13.71
2022-10-14T05:36:48.233Z,13.61
2022-10-14T05:39:16.049Z,13.62
2022-10-14T05:41:45.225Z,13.34
2022-10-14T05:44:14.650Z,13.50
2022-10-14T05:46:43.059Z,13.47
2022-10-14T05:49:11.268Z,13.58
2022-10-14T05:51:39.257Z,13.74
2022-10-14T05:54:14.868Z,13.86
2022-10-14T05:56:45.187Z,13.86
2022-10-14T05:59:12.808Z,13.80
2022-10-14T06:01:40.637Z,13.82
2022-10-14T06:04:08.098Z,13.91
2022-10-14T06:06:35.464Z,13.93
2022-10-14T06:09:05.484Z,13.95
2022-10-14T06:11:35.022Z,14.01
2022-10-14T06:14:03.705Z,14.01
2022-10-14T06:16:31.245Z,13.78
2022-10-14T06:18:58.820Z,13.94
2022-10-14T06:21:27.397Z,14.04
2022-10-14T06:23:54.869Z,14.04
2022-10-14T06:26:22.183Z,14.05
2022-10-14T06:28:49.554Z,13.97
2022-10-14T06:31:18.292Z,14.01
2022-10-14T06:33:45.806Z,14.04
2022-10-14T06:36:13.148Z,13.99
2022-10-14T06:38:41.047Z,14.02
2022-10-14T06:41:08.488Z,14.12
2022-10-14T06:43:37.790Z,14.22
2022-10-14T06:46:05.512Z,14.14
2022-10-14T06:48:34.197Z,14.11
2022-10-14T06:51:01.801Z,14.23
2022-10-14T06:53:29.363Z,14.38
2022-10-14T06:56:01.314Z,14.50
2022-10-14T06:58:28.747Z,14.48
2022-10-14T07:03:28.965Z,14.32
2022-10-14T07:05:57.829Z,14.36
2022-10-14T07:08:25.148Z,14.41
2022-10-14T07:10:52.516Z,14.44
2022-10-14T07:13:20.305Z,14.57
2022-10-14T07:15:48.661Z,14.47
2022-10-14T07:18:16.159Z,14.15
2022-10-14T07:20:43.761Z,14.25
2022-10-14T07:23:12.549Z,14.29
2022-10-14T07:25:39.967Z,14.23
2022-10-14T07:28:07.616Z,14.43
2022-10-14T07:30:35.142Z,14.47
2022-10-14T07:33:02.730Z,14.34
2022-10-14T07:35:32.774Z,14.22
2022-10-14T07:38:00.448Z,14.41
2022-10-14T07:40:29.181Z,14.36
2022-10-14T07:42:57.242Z,14.45
2022-10-14T07:45:24.676Z,14.51
2022-10-14T07:47:52.284Z,14.55
2022-10-14T07:50:20.604Z,14.63
2022-10-14T07:52:47.972Z,14.63
2022-10-14T07:55:15.381Z,14.65
2022-10-14T07:57:44.038Z,14.49
2022-10-14T08:00:12.333Z,14.56
2022-10-14T08:02:39.762Z,14.39
2022-10-14T08:05:32.823Z,14.42
2022-10-14T08:07:54.858Z,14.40
2022-10-14T08:10:22.303Z,14.36
2022-10-14T08:12:51.810Z,14.29
2022-10-14T08:15:19.180Z,14.28
2022-10-14T08:17:46.558Z,14.49
2022-10-14T08:20:13.949Z,14.54
2022-10-14T08:22:41.386Z,14.48
2022-10-14T08:25:09.227Z,14.32
2022-10-14T08:27:36.581Z,14.32
2022-10-14T08:30:10.223Z,14.22
2022-10-14T08:32:38.577Z,14.18
2022-10-14T08:35:06.951Z,14.17
2022-10-14T08:37:34.409Z,14.41
2022-10-14T08:40:01.753Z,14.76
2022-10-14T08:42:36.086Z,14.74
2022-10-14T08:52:55.717Z,15.43
2022-10-14T08:55:28.115Z,15.42
2022-10-14T08:57:58.899Z,15.50
2022-10-14T09:00:28.528Z,15.83
2022-10-14T09:02:56.151Z,16.14
2022-10-14T09:05:24.986Z,16.38
2022-10-14T09:07:55.617Z,16.19
2022-10-14T09:10:29.597Z,16.56
2022-10-14T09:12:59.976Z,16.59
2022-10-14T09:15:33.966Z,16.34
2022-10-14T09:18:05.833Z,16.02
2022-10-14T09:20:33.568Z,16.03
2022-10-14T09:23:11.265Z,16.18
2022-10-14T09:25:40.168Z,16.51
2022-10-14T09:28:07.513Z,16.43
2022-10-14T09:30:37.935Z,16.36
2022-10-14T09:33:06.331Z,16.37
2022-10-14T09:35:36.012Z,16.45
2022-10-14T09:38:03.391Z,16.33
2022-10-14T09:40:32.313Z,16.35
2022-10-14T09:43:02.930Z,16.13
2022-10-14T09:45:31.160Z,15.87
2022-10-14T09:48:03.938Z,16.16
2022-10-14T09:50:34.279Z,16.53
2022-10-14T09:53:03.448Z,16.56
2022-10-14T09:55:31.328Z,16.74
2022-10-14T09:58:04.325Z,16.70
2022-10-14T10:00:33.433Z,16.96
2022-10-14T10:03:02.189Z,17.06
2022-10-14T10:05:31.358Z,17.45
2022-10-14T10:08:05.658Z,17.95
2022-10-14T10:10:35.058Z,18.27
2022-10-14T10:13:03.595Z,18.39
2022-10-14T10:15:31.072Z,18.57
2022-10-14T10:17:58.438Z,18.31
2022-10-14T10:20:33.141Z,18.07
2022-10-14T10:23:25.115Z,18.19
2022-10-14T10:25:52.732Z,18.08
2022-10-14T10:28:31.572Z,17.64
2022-10-14T10:31:06.086Z,17.61
2022-10-14T10:33:38.876Z,17.78
2022-10-14T10:38:59.710Z,17.91
2022-10-14T10:41:37.842Z,18.02
2022-10-14T10:44:20.117Z,18.05
2022-10-14T10:47:03.983Z,18.49
2022-10-14T10:49:43.774Z,18.96
2022-10-14T10:52:21.305Z,19.44
2022-10-14T10:54:54.422Z,19.60
2022-10-14T10:57:32.927Z,19.82
2022-10-14T11:00:02.680Z,19.96
2022-10-14T11:02:55.909Z,19.94
2022-10-14T11:05:30.778Z,19.79
2022-10-14T11:08:28.586Z,19.81
2022-10-14T11:11:30.389Z,19.52
2022-10-14T11:14:04.884Z,19.65
2022-10-14T11:16:36.717Z,19.43
2022-10-14T11:19:11.021Z,19.30
2022-10-14T11:21:45.826Z,19.52
2022-10-14T11:24:24.325Z,19.49
2022-10-14T11:27:00.794Z,19.71
2022-10-14T11:29:42.869Z,19.56
2022-10-14T11:32:15.351Z,20.09
2022-10-14T11:34:44.436Z,20.52
2022-10-14T11:37:21.142Z,20.51
2022-10-14T11:39:51.312Z,20.54
2022-10-14T11:42:27.788Z,20.60
2022-10-14T11:45:07.708Z,19.99
2022-10-14T11:47:40.413Z,20.36
2022-10-14T11:50:16.251Z,20.74
2022-10-14T11:52:46.356Z,21.09
2022-10-14T11:55:17.541Z,20.50
2022-10-14T11:57:46.388Z,20.71
2022-10-14T12:00:33.466Z,21.22
2022-10-14T12:03:04.222Z,21.41
2022-10-14T12:05:37.900Z,21.79
2022-10-14T12:08:17.043Z,21.30
2022-10-14T12:10:48.731Z,20.88
2022-10-14T12:13:18.773Z,20.55
2022-10-14T12:15:50.369Z,20.69
2022-10-14T12:36:47.025Z,20.13
2022-10-14T12:39:31.552Z,20.13
2022-10-14T12:42:00.757Z,20.38
2022-10-14T12:44:34.842Z,20.12
2022-10-14T12:47:03.735Z,19.77
2022-10-14T12:49:32.854Z,20.00
2022-10-14T12:52:03.088Z,19.87
2022-10-14T12:54:31.145Z,19.44
2022-10-14T12:57:00.820Z,19.01
2022-10-14T12:59:30.500Z,19.02
2022-10-14T13:01:59.425Z,18.98
2022-10-14T13:04:27.603Z,19.14
2022-10-14T13:07:46.647Z,18.89
2022-10-14T13:10:32.703Z,18.60
2022-10-14T15:01:20.714Z,16.96
2022-10-14T15:04:12.980Z,17.34
2022-10-14T15:06:50.979Z,17.33
2022-10-14T15:09:23.104Z,17.40
2022-10-14T15:11:52.022Z,17.58
2022-10-14T15:14:30.623Z,17.38
2022-10-14T15:17:00.762Z,17.44
2022-10-14T15:19:35.510Z,17.27
2022-10-14T15:22:36.203Z,17.42
2022-10-14T15:25:08.718Z,17.23
2022-10-14T15:27:45.760Z,17.09
2022-10-14T15:30:36.065Z,17.10
2022-10-14T15:33:14.540Z,16.91
2022-10-14T15:35:42.553Z,16.84
2022-10-14T15:38:16.136Z,16.62
2022-10-14T15:40:44.760Z,16.02
2022-10-14T15:43:17.398Z,15.98
2022-10-14T15:46:08.634Z,15.92
2022-10-14T15:48:37.643Z,15.69
2022-10-14T15:51:05.352Z,15.62
2022-10-14T15:53:32.793Z,15.60
2022-10-14T15:56:01.060Z,15.49
2022-10-14T15:58:28.405Z,15.48
2022-10-14T16:00:55.929Z,15.41
2022-10-14T16:03:23.282Z,15.28
2022-10-14T16:05:52.169Z,15.39
2022-10-14T16:08:19.633Z,15.29
2022-10-14T16:10:48.407Z,15.23
2022-10-14T16:13:16.315Z,15.40
2022-10-14T16:15:47.225Z,15.38
2022-10-14T16:18:15.948Z,15.48
2022-10-14T16:20:43.337Z,15.48
2022-10-14T16:23:15.628Z,15.47
2022-10-14T16:25:45.247Z,15.33
2022-10-14T16:28:14.597Z,15.11
2022-10-14T16:30:49.436Z,15.07
2022-10-14T16:33:17.518Z,15.04
2022-10-14T16:35:46.486Z,14.87
2022-10-14T16:38:15.266Z,14.91
2022-10-14T16:40:45.746Z,14.86
2022-10-14T16:43:13.681Z,14.92
2022-10-14T16:45:41.254Z,14.99
2022-10-14T16:48:09.324Z,14.95
2022-10-14T16:50:36.664Z,14.94
2022-10-14T16:53:21.501Z,14.97
2022-10-14T16:55:51.837Z,14.86
2022-10-14T16:58:19.186Z,14.76
2022-10-14T17:00:46.517Z,14.82
2022-10-14T17:03:15.501Z,14.83
2022-10-14T17:05:44.762Z,14.76
2022-10-14T17:08:14.559Z,14.82
2022-10-14T17:10:42.789Z,14.84
2022-10-14T17:13:11.524Z,14.90
2022-10-14T17:15:38.883Z,14.86
2022-10-14T17:18:08.881Z,14.76
2022-10-14T17:20:38.301Z,14.77
2022-10-14T17:23:09.470Z,14.75
2022-10-14T17:25:40.804Z,14.85
2022-10-14T17:28:08.346Z,14.79
2022-10-14T17:30:40.007Z,14.85
2022-10-14T17:33:07.545Z,14.80
2022-10-14T17:35:37.237Z,14.84
2022-10-14T17:38:04.560Z,14.77
2022-10-14T17:40:33.664Z,14.67
2022-10-14T17:43:01.182Z,14.69
2022-10-14T17:45:30.432Z,14.88
2022-10-14T17:47:59.081Z,14.95
2022-10-14T17:50:27.885Z,14.96
2022-10-14T17:52:58.656Z,15.00
2022-10-14T17:55:26.122Z,14.88
2022-10-14T17:57:53.570Z,14.91
2022-10-14T18:00:21.227Z,14.91
2022-10-14T18:02:48.580Z,14.90
2022-10-14T18:05:17.673Z,15.02
2022-10-14T18:07:44.989Z,15.05
2022-10-14T18:10:14.235Z,14.99
2022-10-14T18:12:41.785Z,14.94
2022-10-14T18:15:10.009Z,15.00
2022-10-14T18:17:37.406Z,15.10
2022-10-14T18:20:06.391Z,14.97
2022-10-14T18:22:35.156Z,15.06
2022-10-14T18:25:03.122Z,14.90
2022-10-14T18:27:31.273Z,14.91
2022-10-14T18:29:58.669Z,14.94
2022-10-14T18:32:26.351Z,15.06
2022-10-14T18:34:53.828Z,14.92
2022-10-14T18:37:21.194Z,14.87
2022-10-14T18:39:49.860Z,14.97
2022-10-14T18:42:20.091Z,15.16
2022-10-14T18:44:48.434Z,15.19
2022-10-14T18:47:15.838Z,15.14
2022-10-14T18:49:43.219Z,14.92
2022-10-14T18:52:10.605Z,14.90
2022-10-14T18:54:38.041Z,14.88
2022-10-14T18:57:06.829Z,14.86
2022-10-14T18:59:35.632Z,14.72
2022-10-14T19:02:09.056Z,14.88
2022-10-14T19:04:36.454Z,14.83
2022-10-14T19:07:04.139Z,14.87
2022-10-14T19:09:33.006Z,14.85
2022-10-14T19:12:00.400Z,14.78
2022-10-14T19:14:31.652Z,14.59
2022-10-14T19:16:59.088Z,14.72
2022-10-14T19:19:26.433Z,14.48
2022-10-14T19:21:56.145Z,14.57
2022-10-14T19:24:23.497Z,14.43
2022-10-14T19:26:51.457Z,14.52
2022-10-14T19:29:18.869Z,14.44
2022-10-14T19:31:47.670Z,14.58
2022-10-14T19:34:16.272Z,14.67
2022-10-14T19:36:44.405Z,14.56
2022-10-14T19:39:13.241Z,14.37
2022-10-14T19:41:43.144Z,14.55
2022-10-14T19:44:11.813Z,14.52
2022-10-14T19:46:40.084Z,14.53
2022-10-14T19:49:13.558Z,14.63
2022-10-14T19:51:41.245Z,14.64
2022-10-14T19:54:09.129Z,14.75
2022-10-14T19:56:36.731Z,14.70
2022-10-14T19:59:04.226Z,14.91
2022-10-14T20:01:32.266Z,14.87
2022-10-14T20:04:01.250Z,14.74
2022-10-14T20:06:31.586Z,14.68
2022-10-14T20:08:59.198Z,14.68
2022-10-14T20:11:26.730Z,14.63
2022-10-14T20:13:57.115Z,14.75
2022-10-14T20:16:24.944Z,14.63
2022-10-14T20:18:52.402Z,14.70
2022-10-14T20:21:19.841Z,14.71
2022-10-14T20:23:48.604Z,14.63
2022-10-14T20:26:17.767Z,14.57
2022-10-14T20:28:45.238Z,14.61
2022-10-14T20:31:16.415Z,14.69
2022-10-14T20:33:44.233Z,14.67
2022-10-14T20:36:14.270Z,14.69
2022-10-14T20:38:42.276Z,14.74
2022-10-14T20:41:14.205Z,14.79
2022-10-14T20:43:42.477Z,14.62
2022-10-14T20:46:10.723Z,14.78
2022-10-14T20:48:38.317Z,14.88
2022-10-14T20:51:06.613Z,14.74
2022-10-14T20:53:36.079Z,14.81
2022-10-14T20:56:04.044Z,14.65
2022-10-14T20:58:32.837Z,14.66
2022-10-14T21:01:08.531Z,14.70
2022-10-14T21:03:36.094Z,14.52
2022-10-14T21:06:04.876Z,14.50
2022-10-14T21:08:32.688Z,14.53
2022-10-14T21:11:00.539Z,14.26
2022-10-14T21:13:28.345Z,14.35
2022-10-14T21:15:57.510Z,14.41
2022-10-14T21:18:25.405Z,14.43
2022-10-14T21:23:20.812Z,14.26
2022-10-14T21:25:55.349Z,14.26
2022-10-14T21:28:22.750Z,14.24
2022-10-14T21:30:50.984Z,14.31
2022-10-14T21:33:19.885Z,14.38
2022-10-14T21:35:47.441Z,14.29
2022-10-14T21:38:14.834Z,14.19
2022-10-14T21:40:42.393Z,14.23
2022-10-14T21:43:09.876Z,14.32
2022-10-14T21:45:37.371Z,14.39
2022-10-14T21:48:06.651Z,14.31
2022-10-14T21:50:35.460Z,14.44
2022-10-14T21:53:02.945Z,14.21
2022-10-14T21:55:30.377Z,14.26
2022-10-14T21:57:58.105Z,14.41
2022-10-14T22:00:25.559Z,14.21
2022-10-14T22:02:54.114Z,14.21
2022-10-14T22:05:22.379Z,14.33
2022-10-14T22:07:51.272Z,14.22
2022-10-14T22:10:38.814Z,14.23
2022-10-14T22:13:06.283Z,14.17
2022-10-14T22:15:33.835Z,14.26
2022-10-14T22:18:01.335Z,14.27
2022-10-14T22:20:29.030Z,14.31
2022-10-14T22:22:59.181Z,14.19
2022-10-14T22:25:26.541Z,14.41
2022-10-14T22:27:55.309Z,14.53
2022-10-14T22:30:22.644Z,14.50
2022-10-14T22:32:49.961Z,14.37
2022-10-14T22:35:17.348Z,14.32
2022-10-14T22:37:44.729Z,14.32
2022-10-14T22:40:13.709Z,14.43
2022-10-14T22:42:42.331Z,14.55
2022-10-14T22:45:11.269Z,14.25
2022-10-14T22:47:38.661Z,14.49
2022-10-14T22:50:06.738Z,14.71
2022-10-14T22:52:34.081Z,14.74
2022-10-14T22:55:01.465Z,14.81
2022-10-14T22:57:30.081Z,14.69
2022-10-14T22:59:57.532Z,14.77
2022-10-14T23:02:25.454Z,14.84
2022-10-14T23:04:53.085Z,14.97
2022-10-14T23:07:20.642Z,14.96
2022-10-14T23:09:48.463Z,14.88
2022-10-14T23:12:15.780Z,14.81
2022-10-14T23:14:44.729Z,14.70
2022-10-14T23:17:12.097Z,14.82
2022-10-14T23:19:39.466Z,14.73
2022-10-14T23:22:06.834Z,14.64
2022-10-14T23:24:34.189Z,14.58
2022-10-14T23:27:01.549Z,14.45
2022-10-14T23:29:28.872Z,14.54
2022-10-14T23:31:58.029Z,14.30
2022-10-14T23:34:25.349Z,14.32
2022-10-14T23:39:24.948Z,14.07
2022-10-14T23:41:55.258Z,13.80
2022-10-14T23:44:22.597Z,13.74
2022-10-14T23:46:50.770Z,13.81
2022-10-14T23:49:26.030Z,13.42
2022-10-14T23:51:54.252Z,13.62
2022-10-14T23:54:21.597Z,13.40
2022-10-14T23:56:48.945Z,13.41
2022-10-14T23:59:16.306Z,13.49
